Time;durP1;ratioP1;P1;durP2;ratioP2;P2;SDS_P1;SDS_P2;PMS_P1;PMS_P2;Temp;Humidity;BMP_temperature;BMP_pressure;BME280_temperature;BME280_humidity;BME280_pressure;Samples;Min_cycle;Max_cycle;Signal;HPM_P1;HPM_P2
2024/03/07 00:01:26;;;;;;;35.13;22.75;;;;;;;-146.18;100.00;67994.34;10362598;27;20127;-72
2024/03/07 00:06:23;;;;;;;29.77;22.00;;;;;;;-146.18;100.00;67994.34;10356054;27;20040;-71
2024/03/07 00:11:19;;;;;;;31.45;21.48;;;;;;;-146.18;100.00;67994.34;10356107;27;20092;-71
2024/03/07 00:16:17;;;;;;;33.17;21.50;;;;;;;-146.18;100.00;67994.34;10357426;27;20488;-72
2024/03/07 00:21:13;;;;;;;32.63;20.75;;;;;;;-146.18;100.00;67994.34;10352880;27;20073;-72
2024/03/07 00:26:10;;;;;;;26.30;18.95;;;;;;;-146.18;100.00;67994.34;10354130;27;20052;-72
2024/03/07 00:31:07;;;;;;;24.17;19.08;;;;;;;-146.18;100.00;67994.34;10356959;27;20039;-71
2024/03/07 00:36:04;;;;;;;30.25;20.23;;;;;;;-146.18;100.00;67994.34;10345074;27;20047;-72
2024/03/07 00:41:00;;;;;;;26.63;19.73;;;;;;;-146.18;100.00;67994.34;10351749;27;20051;-72
2024/03/07 00:45:57;;;;;;;31.92;20.70;;;;;;;-146.18;100.00;67994.34;10346440;27;20055;-71
2024/03/07 00:50:53;;;;;;;27.50;19.98;;;;;;;-146.18;100.00;67994.34;10351455;27;20079;-71
2024/03/07 00:55:50;;;;;;;34.83;19.65;;;;;;;-146.18;100.00;67994.34;10355964;27;20488;-71
2024/03/07 01:00:47;;;;;;;30.65;20.38;;;;;;;-146.18;100.00;67994.34;10353877;27;20054;-71
2024/03/07 01:05:44;;;;;;;24.35;17.98;;;;;;;-146.18;100.00;67994.34;10345306;27;20044;-71
2024/03/07 01:10:41;;;;;;;35.63;23.27;;;;;;;-146.18;100.00;67994.34;10349194;27;20044;-71
2024/03/07 01:15:38;;;;;;;30.80;20.13;;;;;;;-146.18;100.00;67994.34;10352630;27;20047;-71
2024/03/07 01:20:35;;;;;;;36.53;20.42;;;;;;;-146.18;100.00;67994.34;10342126;27;20072;-71
2024/03/07 01:25:33;;;;;;;31.65;20.80;;;;;;;-146.18;100.00;67994.34;10356538;27;20062;-72
2024/03/07 01:30:30;;;;;;;30.25;20.10;;;;;;;-146.18;100.00;67994.34;10359431;27;20052;-71
2024/03/07 01:35:26;;;;;;;35.45;19.67;;;;;;;-146.18;100.00;67994.34;10361142;27;20051;-72
2024/03/07 01:40:23;;;;;;;31.73;21.10;;;;;;;-146.18;100.00;67994.34;10358623;27;20048;-72
2024/03/07 01:45:19;;;;;;;34.63;22.55;;;;;;;-146.18;100.00;67994.34;10358957;27;20044;-71
2024/03/07 01:50:17;;;;;;;30.25;21.30;;;;;;;-146.18;100.00;67994.34;10369467;27;20044;-72
2024/03/07 01:55:15;;;;;;;31.45;22.38;;;;;;;-146.18;100.00;67994.34;10361236;27;20135;-72
2024/03/07 02:00:12;;;;;;;36.35;23.05;;;;;;;-146.18;100.00;67994.34;10359568;27;20215;-72
2024/03/07 02:05:10;;;;;;;37.35;22.92;;;;;;;-146.18;100.00;67994.34;10358284;27;20040;-72
2024/03/07 02:10:06;;;;;;;38.95;23.58;;;;;;;-146.18;100.00;67994.34;10352485;27;20056;-71
2024/03/07 02:15:03;;;;;;;33.53;21.80;;;;;;;-146.18;100.00;67994.34;10358531;28;20048;-72
2024/03/07 02:20:00;;;;;;;40.35;22.42;;;;;;;-146.18;100.00;67994.34;10350798;28;20105;-72
2024/03/07 02:24:56;;;;;;;35.67;21.45;;;;;;;-146.18;100.00;67994.34;10355296;28;20048;-71
2024/03/07 02:29:52;;;;;;;32.17;21.73;;;;;;;-146.18;100.00;67994.34;10357026;28;20040;-72
2024/03/07 02:34:49;;;;;;;38.67;21.77;;;;;;;-146.18;100.00;67994.34;10370423;27;20445;-71
2024/03/07 02:39:46;;;;;;;28.35;20.85;;;;;;;-146.18;100.00;67994.34;10358854;27;20059;-72
2024/03/07 02:44:42;;;;;;;32.72;19.88;;;;;;;-146.18;100.00;67994.34;10353063;27;20047;-71
2024/03/07 02:49:39;;;;;;;32.85;20.45;;;;;;;-146.18;100.00;67994.34;10354063;27;20044;-73
2024/03/07 02:54:35;;;;;;;26.95;19.17;;;;;;;-146.18;100.00;67994.34;10361412;27;20469;-71
2024/03/07 02:59:32;;;;;;;27.85;19.90;;;;;;;-146.18;100.00;67994.34;10359197;27;20051;-71
2024/03/07 03:04:29;;;;;;;27.13;18.50;;;;;;;-146.18;100.00;67994.34;10352169;27;20044;-71
2024/03/07 03:09:27;;;;;;;28.90;18.48;;;;;;;-146.18;100.00;67994.34;10357504;27;20055;-71
2024/03/07 03:14:24;;;;;;;27.58;18.95;;;;;;;-146.18;100.00;67994.34;10354555;27;20041;-72
2024/03/07 03:19:23;;;;;;;26.83;18.10;;;;;;;-146.18;100.00;67994.34;10355664;27;20697;-72
2024/03/07 03:24:20;;;;;;;32.92;19.38;;;;;;;-146.18;100.00;67994.34;10351213;27;20077;-72
2024/03/07 03:29:18;;;;;;;30.17;17.95;;;;;;;-146.18;100.00;67994.34;10359229;27;20043;-71
2024/03/07 03:34:14;;;;;;;29.95;17.73;;;;;;;-146.18;100.00;67994.34;10345441;27;20392;-72
2024/03/07 03:39:13;;;;;;;28.00;17.83;;;;;;;-146.18;100.00;67994.34;10354662;27;20044;-71
2024/03/07 03:44:11;;;;;;;23.58;16.58;;;;;;;-146.18;100.00;67994.34;10356610;27;20040;-72
2024/03/07 03:49:07;;;;;;;25.13;17.73;;;;;;;-146.18;100.00;67994.34;10354470;27;20055;-71
2024/03/07 03:54:05;;;;;;;28.23;18.98;;;;;;;-146.18;100.00;67994.34;10354397;28;20047;-72
2024/03/07 03:59:02;;;;;;;22.40;17.40;;;;;;;-146.18;100.00;67994.34;10352241;28;20731;-71
2024/03/07 04:03:58;;;;;;;27.33;18.20;;;;;;;-146.18;100.00;67994.34;10349670;28;20101;-71
2024/03/07 04:08:55;;;;;;;22.70;16.95;;;;;;;-146.18;100.00;67994.34;10353603;27;20047;-71
2024/03/07 04:13:52;;;;;;;27.30;19.35;;;;;;;-146.18;100.00;67994.34;10344931;28;20044;-71
2024/03/07 04:18:48;;;;;;;25.33;17.27;;;;;;;-146.18;100.00;67994.34;10357881;27;20483;-71
2024/03/07 04:23:46;;;;;;;26.13;18.60;;;;;;;-146.18;100.00;67994.34;10346166;27;20131;-72
2024/03/07 04:28:43;;;;;;;26.17;18.33;;;;;;;-146.18;100.00;67994.34;10359384;27;20138;-72
2024/03/07 04:33:39;;;;;;;27.52;18.05;;;;;;;-146.18;100.00;67994.34;10353581;27;20043;-72
2024/03/07 04:38:36;;;;;;;23.95;18.55;;;;;;;-146.18;100.00;67994.34;10366779;27;20499;-72
2024/03/07 04:43:33;;;;;;;28.33;18.40;;;;;;;-146.18;100.00;67994.34;10359371;27;20043;-71
2024/03/07 04:48:29;;;;;;;23.88;18.58;;;;;;;-146.18;100.00;67994.34;10349600;27;20044;-71
2024/03/07 04:53:26;;;;;;;27.75;18.95;;;;;;;-146.18;100.00;67994.34;10356443;27;20142;-71
2024/03/07 04:58:22;;;;;;;27.48;19.40;;;;;;;-146.18;100.00;67994.34;10358129;27;20078;-73
2024/03/07 05:03:19;;;;;;;25.00;18.45;;;;;;;-146.18;100.00;67994.34;10359043;27;20423;-72
2024/03/07 05:08:16;;;;;;;21.05;17.83;;;;;;;-146.18;100.00;67994.34;10346071;27;20113;-71
2024/03/07 05:13:12;;;;;;;24.52;17.80;;;;;;;-146.18;100.00;67994.34;10351691;27;20055;-71
2024/03/07 05:18:09;;;;;;;21.52;18.17;;;;;;;-146.18;100.00;67994.34;10348798;27;20073;-71
2024/03/07 05:23:06;;;;;;;25.92;17.83;;;;;;;-146.18;100.00;67994.34;10349130;27;20067;-71
2024/03/07 05:28:03;;;;;;;19.38;16.90;;;;;;;-146.18;100.00;67994.34;10349885;27;20569;-72
2024/03/07 05:33:01;;;;;;;23.13;16.45;;;;;;;-146.18;100.00;67994.34;10347168;27;20078;-71
2024/03/07 05:37:59;;;;;;;19.67;16.73;;;;;;;-146.18;100.00;67994.34;10352226;27;20094;-71
2024/03/07 05:42:57;;;;;;;19.17;16.08;;;;;;;-146.18;100.00;67994.34;10351621;27;20672;-71
2024/03/07 05:47:53;;;;;;;22.17;17.10;;;;;;;-146.18;100.00;67994.34;10357259;27;20044;-72
2024/03/07 05:52:50;;;;;;;20.20;16.88;;;;;;;-146.18;100.00;67994.34;10353728;27;20469;-72
2024/03/07 05:57:46;;;;;;;18.40;16.42;;;;;;;-146.18;100.00;67994.34;10353587;27;20499;-72
2024/03/07 06:02:43;;;;;;;22.73;17.08;;;;;;;-146.18;100.00;67994.34;10353296;27;20044;-71
2024/03/07 06:07:39;;;;;;;22.20;17.05;;;;;;;-146.18;100.00;67994.34;10352833;27;20460;-72
2024/03/07 06:12:36;;;;;;;17.98;16.08;;;;;;;-146.18;100.00;67994.34;10362602;27;20044;-71
2024/03/07 06:17:39;;;;;;;22.67;17.73;;;;;;;-146.18;100.00;67994.34;10348310;27;20040;-71
2024/03/07 06:22:35;;;;;;;22.20;18.27;;;;;;;-146.18;100.00;67994.34;10351449;28;20739;-71
2024/03/07 06:27:37;;;;;;;20.80;16.95;;;;;;;-146.18;100.00;67994.34;10349256;27;20457;-71
2024/03/07 06:32:33;;;;;;;22.42;17.33;;;;;;;-146.18;100.00;67994.34;10355608;27;20048;-72
2024/03/07 06:37:30;;;;;;;26.33;17.27;;;;;;;-146.18;100.00;67994.34;10354197;27;20035;-72
2024/03/07 06:42:26;;;;;;;22.45;17.10;;;;;;;-146.18;100.00;67994.34;10354916;28;20043;-71
2024/03/07 06:47:23;;;;;;;20.00;15.52;;;;;;;-146.18;100.00;67994.34;10358352;27;20036;-73
2024/03/07 06:52:20;;;;;;;21.15;17.13;;;;;;;-146.18;100.00;67994.34;10355210;27;20083;-71
2024/03/07 06:57:17;;;;;;;20.67;15.65;;;;;;;-146.18;100.00;67994.34;10353008;27;20085;-71
2024/03/07 07:02:13;;;;;;;21.27;16.40;;;;;;;-146.18;100.00;67994.34;10355856;27;20406;-71
2024/03/07 07:07:12;;;;;;;18.92;16.10;;;;;;;-146.18;100.00;67994.34;10348873;27;20059;-71
2024/03/07 07:12:09;;;;;;;22.85;15.98;;;;;;;-146.18;100.00;67994.34;10339182;28;20094;-72
2024/03/07 07:17:05;;;;;;;19.45;16.02;;;;;;;-146.18;100.00;67994.34;10347037;27;20040;-72
2024/03/07 07:22:06;;;;;;;18.92;15.38;;;;;;;-146.18;100.00;67994.34;10350365;27;20744;-72
2024/03/07 07:27:03;;;;;;;20.65;15.55;;;;;;;-146.18;100.00;67994.34;10352156;27;20479;-73
2024/03/07 07:31:59;;;;;;;17.27;15.48;;;;;;;-146.18;100.00;67994.34;10345940;27;20519;-72
2024/03/07 07:36:56;;;;;;;20.75;15.23;;;;;;;-146.18;100.00;67994.34;10356524;27;20560;-71
2024/03/07 07:41:53;;;;;;;19.77;15.80;;;;;;;-146.18;100.00;67994.34;10350410;27;20512;-71
2024/03/07 07:46:49;;;;;;;16.98;13.80;;;;;;;-146.18;100.00;67994.34;10348234;27;20044;-71
2024/03/07 07:51:48;;;;;;;18.40;16.08;;;;;;;-146.18;100.00;67994.34;10347280;27;20113;-72
2024/03/07 07:56:44;;;;;;;21.90;16.88;;;;;;;-146.18;100.00;67994.34;10344781;27;20059;-72
2024/03/07 08:01:41;;;;;;;22.98;16.65;;;;;;;-146.18;100.00;67994.34;10352242;27;20040;-72
2024/03/07 08:06:37;;;;;;;20.05;17.38;;;;;;;-146.18;100.00;67994.34;10354588;27;20052;-71
2024/03/07 08:11:34;;;;;;;21.83;18.33;;;;;;;-146.18;100.00;67994.34;10359101;27;20137;-71
2024/03/07 08:16:30;;;;;;;22.45;17.40;;;;;;;-146.18;100.00;67994.34;10340235;27;20068;-71
2024/03/07 08:21:27;;;;;;;22.60;18.23;;;;;;;-146.18;100.00;67994.34;10344317;27;20134;-72
2024/03/07 08:26:23;;;;;;;20.73;16.98;;;;;;;-146.18;100.00;67994.34;10356534;27;20036;-71
2024/03/07 08:31:20;;;;;;;20.38;15.93;;;;;;;-146.18;100.00;67994.34;10350118;27;20055;-72
2024/03/07 08:36:16;;;;;;;20.38;15.80;;;;;;;-146.18;100.00;67994.34;10349855;27;20499;-71
2024/03/07 08:41:13;;;;;;;17.88;14.95;;;;;;;-146.18;100.00;67994.34;10346706;27;20101;-72
2024/03/07 08:46:10;;;;;;;16.75;14.13;;;;;;;-146.18;100.00;67994.34;10349006;27;20038;-71
2024/03/07 08:51:06;;;;;;;15.70;13.75;;;;;;;-146.18;100.00;67994.34;10346782;27;20052;-72
2024/03/07 08:56:03;;;;;;;18.90;14.77;;;;;;;-146.18;100.00;67994.34;10339858;27;20117;-72
2024/03/07 09:01:00;;;;;;;17.52;15.50;;;;;;;-146.18;100.00;67994.34;10357367;27;20052;-72
2024/03/07 09:05:56;;;;;;;18.63;15.30;;;;;;;-146.18;100.00;67994.34;10354931;27;20066;-72
2024/03/07 09:10:55;;;;;;;15.50;13.63;;;;;;;-146.18;100.00;67994.34;10343636;27;20040;-72
2024/03/07 09:15:52;;;;;;;18.98;15.65;;;;;;;-146.18;100.00;67994.34;10346877;27;20538;-72
2024/03/07 09:20:48;;;;;;;22.85;17.25;;;;;;;-146.18;100.00;67994.34;10352577;27;20091;-72
2024/03/07 09:25:45;;;;;;;22.23;16.95;;;;;;;-146.18;100.00;67994.34;10352673;27;20047;-72
2024/03/07 09:30:42;;;;;;;24.55;17.75;;;;;;;-146.18;100.00;67994.34;10349939;27;20776;-72
2024/03/07 09:35:39;;;;;;;26.27;18.15;;;;;;;-146.18;100.00;67994.34;10350874;27;20423;-71
2024/03/07 09:40:35;;;;;;;20.60;17.33;;;;;;;-146.18;100.00;67994.34;10352914;27;20040;-71
2024/03/07 09:45:34;;;;;;;26.10;18.75;;;;;;;-146.18;100.00;67994.34;10361787;27;20048;-72
2024/03/07 09:50:31;;;;;;;20.58;18.10;;;;;;;-146.18;100.00;67994.34;10343753;27;20487;-71
2024/03/07 09:55:28;;;;;;;26.77;18.52;;;;;;;-146.18;100.00;67994.34;10343925;28;20496;-71
2024/03/07 10:00:25;;;;;;;23.08;19.20;;;;;;;-146.18;100.00;67994.34;10359980;27;20044;-72
2024/03/07 10:05:27;;;;;;;24.80;18.88;;;;;;;-146.18;100.00;67994.34;10358280;27;20051;-72
2024/03/07 10:10:24;;;;;;;27.85;18.75;;;;;;;-146.18;100.00;67994.34;10348071;28;20056;-72
2024/03/07 10:15:21;;;;;;;30.25;19.50;;;;;;;-146.18;100.00;67994.34;10351397;28;20140;-72
2024/03/07 10:20:21;;;;;;;23.42;19.27;;;;;;;-146.18;100.00;67994.34;10355277;27;20086;-72
2024/03/07 10:25:24;;;;;;;23.52;19.75;;;;;;;-146.18;100.00;67994.34;10360557;27;20051;-72
2024/03/07 10:30:20;;;;;;;28.55;19.08;;;;;;;-146.18;100.00;67994.34;10355963;27;20086;-71
2024/03/07 10:35:22;;;;;;;28.63;19.10;;;;;;;-146.18;100.00;67994.34;10365426;27;20418;-72
2024/03/07 10:40:22;;;;;;;27.27;20.38;;;;;;;-146.18;100.00;67994.34;10359438;27;20189;-71
2024/03/07 10:45:22;;;;;;;25.40;19.25;;;;;;;-146.18;100.00;67994.34;10349796;27;20056;-72
2024/03/07 10:50:47;;;;;;;22.17;17.90;;;;;;;-146.18;100.00;67994.34;10365758;28;20040;-72
2024/03/07 10:56:11;;;;;;;22.65;17.33;;;;;;;-146.18;100.00;67994.34;10338417;27;20050;-72
2024/03/07 11:01:12;;;;;;;21.65;17.10;;;;;;;-146.18;100.00;67994.34;10350774;27;20039;-72
2024/03/07 11:06:11;;;;;;;23.38;18.15;;;;;;;-146.18;100.00;67994.34;10361367;27;20086;-71
2024/03/07 11:11:08;;;;;;;23.80;18.27;;;;;;;-146.18;100.00;67994.34;10352088;27;20075;-72
2024/03/07 11:16:06;;;;;;;23.30;17.52;;;;;;;-146.18;100.00;67994.34;10348493;27;20255;-72
2024/03/07 11:21:07;;;;;;;26.73;18.83;;;;;;;-146.18;100.00;67994.34;10347270;27;20411;-72
2024/03/07 11:26:08;;;;;;;22.00;18.40;;;;;;;-146.18;100.00;67994.34;10349570;27;20040;-71
2024/03/07 11:31:11;;;;;;;27.42;18.15;;;;;;;-146.18;100.00;67994.34;10356019;27;20048;-71
2024/03/07 11:36:11;;;;;;;23.80;17.50;;;;;;;-146.18;100.00;67994.34;10340679;28;20048;-71
2024/03/07 11:41:13;;;;;;;24.35;19.05;;;;;;;-146.18;100.00;67994.34;10354537;27;20047;-72
2024/03/07 11:46:16;;;;;;;25.27;18.40;;;;;;;-146.18;100.00;67994.34;10348408;28;20070;-72
2024/03/07 11:51:15;;;;;;;24.60;18.00;;;;;;;-146.18;100.00;67994.34;10337955;27;20505;-71
2024/03/07 11:56:16;;;;;;;29.38;17.13;;;;;;;-146.18;100.00;67994.34;10347891;27;20048;-71
2024/03/07 12:01:16;;;;;;;25.23;19.03;;;;;;;-146.18;100.00;67994.34;10350631;27;20063;-73
2024/03/07 12:06:17;;;;;;;30.13;17.63;;;;;;;-146.18;100.00;67994.34;10342029;27;20694;-72
2024/03/07 12:11:15;;;;;;;29.40;18.20;;;;;;;-146.18;100.00;67994.34;10341080;28;20063;-73
2024/03/07 12:16:12;;;;;;;29.15;19.80;;;;;;;-146.18;100.00;67994.34;10346227;27;20515;-71
2024/03/07 12:21:09;;;;;;;26.35;18.88;;;;;;;-146.18;100.00;67994.34;10344728;27;20513;-72
2024/03/07 12:26:06;;;;;;;26.42;20.73;;;;;;;-146.18;100.00;67994.34;10345698;27;20067;-72
2024/03/07 12:31:03;;;;;;;27.38;19.67;;;;;;;-146.18;100.00;67994.34;10339958;27;20055;-72
2024/03/07 12:36:05;;;;;;;27.35;18.52;;;;;;;-146.18;100.00;67994.34;10342360;27;20048;-72
2024/03/07 12:41:13;;;;;;;25.73;18.67;;;;;;;-146.18;100.00;67994.34;10344946;27;20605;-71
2024/03/07 12:46:15;;;;;;;30.23;20.67;;;;;;;-146.18;100.00;67994.34;10335826;27;20044;-72
2024/03/07 12:51:16;;;;;;;27.10;19.13;;;;;;;-146.18;100.00;67994.34;10338244;27;20132;-71
2024/03/07 12:56:16;;;;;;;28.00;19.60;;;;;;;-146.18;100.00;67994.34;10347973;27;20055;-71
2024/03/07 13:01:13;;;;;;;25.98;19.85;;;;;;;-146.18;100.00;67994.34;10343202;27;20041;-71
2024/03/07 13:06:10;;;;;;;29.98;21.35;;;;;;;-146.18;100.00;67994.34;10351643;27;20073;-71
2024/03/07 13:11:09;;;;;;;29.05;20.63;;;;;;;-146.18;100.00;67994.34;10347825;27;20124;-71
2024/03/07 13:16:06;;;;;;;27.15;19.10;;;;;;;-146.18;100.00;67994.34;10345566;28;20501;-72
2024/03/07 13:21:10;;;;;;;28.90;20.48;;;;;;;-146.18;100.00;67994.34;10350376;27;20040;-71
2024/03/07 13:26:16;;;;;;;29.13;19.50;;;;;;;-146.18;100.00;67994.34;10295830;27;1392029;-72
2024/03/07 13:31:17;;;;;;;27.15;20.73;;;;;;;-146.18;100.00;67994.34;10339221;27;20139;-73
2024/03/07 13:36:14;;;;;;;27.20;18.15;;;;;;;-146.18;100.00;67994.34;10344438;28;20051;-72
2024/03/07 13:41:11;;;;;;;27.85;19.75;;;;;;;-146.18;100.00;67994.34;10343684;27;20136;-71
2024/03/07 13:46:08;;;;;;;24.45;18.50;;;;;;;-146.18;100.00;67994.34;10335743;27;20044;-72
2024/03/07 13:51:08;;;;;;;25.45;19.20;;;;;;;-146.18;100.00;67994.34;10354970;27;20461;-72
2024/03/07 13:56:38;;;;;;;31.15;19.10;;;;;;;-146.18;100.00;67994.34;10343173;27;20044;-72
2024/03/07 14:02:03;;;;;;;31.02;19.63;;;;;;;-146.18;100.00;67994.34;10346350;27;20051;-71
2024/03/07 14:07:33;;;;;;;27.42;18.92;;;;;;;-146.18;100.00;67994.34;10341030;27;20098;-72
2024/03/07 14:12:58;;;;;;;26.65;18.83;;;;;;;-146.18;100.00;67994.34;10345292;28;20067;-72
2024/03/07 14:18:46;;;;;;;22.63;16.75;;;;;;;-146.18;100.00;67994.34;10329923;28;20052;-72
2024/03/07 14:24:04;;;;;;;22.00;16.52;;;;;;;-146.18;100.00;67994.34;10326716;28;20040;-72
2024/03/07 14:29:15;;;;;;;22.77;16.48;;;;;;;-146.18;100.00;67994.34;10357517;27;20058;-72
2024/03/07 14:34:29;;;;;;;23.50;16.55;;;;;;;-146.18;100.00;67994.34;10358458;27;20047;-71
2024/03/07 14:39:26;;;;;;;24.75;15.88;;;;;;;-146.18;100.00;67994.34;10340578;28;20085;-72
2024/03/07 14:44:22;;;;;;;24.40;15.85;;;;;;;-146.18;100.00;67994.34;10353739;27;20066;-72
2024/03/07 14:49:20;;;;;;;23.98;14.52;;;;;;;-146.18;100.00;67994.34;10353682;27;20040;-72
2024/03/07 14:54:16;;;;;;;23.98;15.23;;;;;;;-146.18;100.00;67994.34;10353652;27;20040;-72
2024/03/07 14:59:13;;;;;;;23.23;15.55;;;;;;;-146.18;100.00;67994.34;10359320;27;20050;-72
2024/03/07 15:04:11;;;;;;;24.00;15.45;;;;;;;-146.18;100.00;67994.34;10358328;27;20101;-71
2024/03/07 15:09:09;;;;;;;20.27;14.95;;;;;;;-146.18;100.00;67994.34;10356585;27;20499;-71
2024/03/07 15:14:09;;;;;;;22.85;14.45;;;;;;;-146.18;100.00;67994.34;10352385;27;20044;-72
2024/03/07 15:19:08;;;;;;;22.15;15.23;;;;;;;-146.18;100.00;67994.34;10352518;27;20082;-72
2024/03/07 15:24:05;;;;;;;24.40;15.40;;;;;;;-146.18;100.00;67994.34;10342134;27;20044;-72
2024/03/07 15:29:02;;;;;;;23.42;14.93;;;;;;;-146.18;100.00;67994.34;10355527;27;20856;-72
2024/03/07 15:33:59;;;;;;;21.15;15.15;;;;;;;-146.18;100.00;67994.34;10355217;27;20130;-72
2024/03/07 15:38:57;;;;;;;21.08;14.52;;;;;;;-146.18;100.00;67994.34;10362810;27;20067;-71
2024/03/07 15:43:53;;;;;;;23.10;14.25;;;;;;;-146.18;100.00;67994.34;10357502;27;20533;-72
2024/03/07 15:48:50;;;;;;;24.33;14.02;;;;;;;-146.18;100.00;67994.34;10352378;27;20075;-72
2024/03/07 15:53:47;;;;;;;21.02;13.88;;;;;;;-146.18;100.00;67994.34;10350984;27;20040;-72
2024/03/07 15:58:45;;;;;;;21.42;14.20;;;;;;;-146.18;100.00;67994.34;10349911;27;20036;-72
2024/03/07 16:03:42;;;;;;;20.63;14.57;;;;;;;-146.18;100.00;67994.34;10353410;27;20044;-72
2024/03/07 16:08:39;;;;;;;19.83;14.45;;;;;;;-146.18;100.00;67994.34;10345796;27;20047;-71
2024/03/07 16:13:36;;;;;;;28.88;16.00;;;;;;;-146.18;100.00;67994.34;10355532;27;20139;-72
2024/03/07 16:18:35;;;;;;;21.90;14.93;;;;;;;-146.18;100.00;67994.34;10344106;27;20040;-72
2024/03/07 16:23:32;;;;;;;25.33;16.30;;;;;;;-146.18;100.00;67994.34;10349720;27;20044;-72
2024/03/07 16:28:28;;;;;;;24.58;14.90;;;;;;;-146.18;100.00;67994.34;10356214;27;20036;-71
2024/03/07 16:33:27;;;;;;;27.05;16.42;;;;;;;-146.18;100.00;67994.34;10345180;27;20040;-72
2024/03/07 16:38:24;;;;;;;28.02;16.58;;;;;;;-146.18;100.00;67994.34;10352068;27;20048;-71
2024/03/07 16:43:24;;;;;;;27.58;15.55;;;;;;;-146.18;100.00;67994.34;10352626;27;20067;-71
2024/03/07 16:48:21;;;;;;;37.22;17.73;;;;;;;-146.18;100.00;67994.34;10353218;27;20032;-71
2024/03/07 16:53:17;;;;;;;37.42;18.95;;;;;;;-146.18;100.00;67994.34;10352094;27;20040;-71
2024/03/07 16:58:16;;;;;;;28.80;17.95;;;;;;;-146.18;100.00;67994.34;10356652;27;20056;-71
2024/03/07 17:03:14;;;;;;;34.17;19.38;;;;;;;-146.18;100.00;67994.34;10345118;27;20055;-72
2024/03/07 17:08:12;;;;;;;29.55;18.75;;;;;;;-146.18;100.00;67994.34;10342224;27;20133;-71
2024/03/07 17:13:10;;;;;;;33.53;20.20;;;;;;;-146.18;100.00;67994.34;10347620;27;20040;-72
2024/03/07 17:18:09;;;;;;;26.50;19.08;;;;;;;-146.18;100.00;67994.34;10351180;27;20422;-71
2024/03/07 17:23:07;;;;;;;28.17;19.10;;;;;;;-146.18;100.00;67994.34;10343305;27;20040;-71
2024/03/07 17:28:04;;;;;;;29.85;20.30;;;;;;;-146.18;100.00;67994.34;10351487;27;20048;-71
2024/03/07 17:33:01;;;;;;;36.60;19.88;;;;;;;-146.18;100.00;67994.34;10353629;27;20047;-72
2024/03/07 17:37:57;;;;;;;31.42;20.65;;;;;;;-146.18;100.00;67994.34;10348892;27;20051;-72
2024/03/07 17:42:55;;;;;;;29.52;19.23;;;;;;;-146.18;100.00;67994.34;10341966;27;20090;-71
2024/03/07 17:47:57;;;;;;;32.20;20.52;;;;;;;-146.18;100.00;67994.34;10349151;27;20508;-72
2024/03/07 17:53:03;;;;;;;25.52;19.27;;;;;;;-146.18;100.00;67994.34;10341113;28;20097;-71
2024/03/07 17:58:02;;;;;;;29.45;19.30;;;;;;;-146.18;100.00;67994.34;10349143;27;20036;-71
2024/03/07 18:03:05;;;;;;;28.13;17.60;;;;;;;-146.18;100.00;67994.34;10353645;27;20046;-72
2024/03/07 18:08:10;;;;;;;32.28;19.35;;;;;;;-146.18;100.00;67994.34;10349854;27;20551;-72
2024/03/07 18:13:26;;;;;;;27.98;18.88;;;;;;;-146.18;100.00;67994.34;10358854;27;20488;-72
2024/03/07 18:18:23;;;;;;;33.03;19.27;;;;;;;-146.18;100.00;67994.34;10354965;27;20046;-71
2024/03/07 18:23:21;;;;;;;27.20;19.65;;;;;;;-146.18;100.00;67994.34;10350314;27;20586;-72
2024/03/07 18:28:21;;;;;;;26.13;18.98;;;;;;;-146.18;100.00;67994.34;10357888;27;20044;-71
2024/03/07 18:33:17;;;;;;;23.75;18.63;;;;;;;-146.18;100.00;67994.34;10350468;28;20452;-71
2024/03/07 18:38:15;;;;;;;31.75;19.38;;;;;;;-146.18;100.00;67994.34;10362338;27;20036;-71
2024/03/07 18:43:12;;;;;;;23.90;18.38;;;;;;;-146.18;100.00;67994.34;10347644;27;20058;-71
2024/03/07 18:48:11;;;;;;;26.20;18.67;;;;;;;-146.18;100.00;67994.34;10357785;27;20059;-72
2024/03/07 18:53:08;;;;;;;25.50;19.58;;;;;;;-146.18;100.00;67994.34;10351928;27;20047;-71
2024/03/07 18:58:06;;;;;;;28.00;19.20;;;;;;;-146.18;100.00;67994.34;10342730;28;20040;-72
2024/03/07 19:03:06;;;;;;;28.17;19.65;;;;;;;-146.18;100.00;67994.34;10350428;27;20055;-72
2024/03/07 19:08:15;;;;;;;27.48;19.75;;;;;;;-146.18;100.00;67994.34;10362702;27;20039;-71
2024/03/07 19:13:13;;;;;;;26.60;18.63;;;;;;;-146.18;100.00;67994.34;10354976;27;20576;-71
2024/03/07 19:18:12;;;;;;;24.00;20.00;;;;;;;-146.18;100.00;67994.34;10357128;27;20122;-71
2024/03/07 19:23:10;;;;;;;30.38;19.75;;;;;;;-146.18;100.00;67994.34;10355743;27;20134;-71
2024/03/07 19:28:14;;;;;;;25.52;19.70;;;;;;;-146.18;100.00;67994.34;10347800;27;20040;-72
2024/03/07 19:33:14;;;;;;;24.92;20.02;;;;;;;-146.18;100.00;67994.34;10360429;27;20044;-71
2024/03/07 19:38:14;;;;;;;26.55;20.23;;;;;;;-146.18;100.00;67994.34;10349458;27;20044;-71
2024/03/07 19:43:11;;;;;;;28.80;20.08;;;;;;;-146.18;100.00;67994.34;10355105;27;20063;-73
2024/03/07 19:48:11;;;;;;;23.83;20.42;;;;;;;-146.18;100.00;67994.34;10353649;27;20054;-71
2024/03/07 19:53:16;;;;;;;28.35;19.92;;;;;;;-146.18;100.00;67994.34;10354987;27;20036;-71
2024/03/07 19:58:12;;;;;;;25.08;18.52;;;;;;;-146.18;100.00;67994.34;10340935;28;20044;-73
2024/03/07 20:03:10;;;;;;;24.70;20.38;;;;;;;-146.18;100.00;67994.34;10357867;27;20467;-72
2024/03/07 20:08:07;;;;;;;25.55;19.42;;;;;;;-146.18;100.00;67994.34;10343287;27;20041;-72
2024/03/07 20:13:04;;;;;;;29.30;19.17;;;;;;;-146.18;100.00;67994.34;10339380;27;20433;-73
2024/03/07 20:18:00;;;;;;;25.70;19.98;;;;;;;-146.18;100.00;67994.34;10338745;28;20495;-71
2024/03/07 20:22:57;;;;;;;24.83;19.58;;;;;;;-146.18;100.00;67994.34;10342360;27;20515;-71
2024/03/07 20:27:55;;;;;;;29.25;20.17;;;;;;;-146.18;100.00;67994.34;10348427;27;20067;-72
2024/03/07 20:32:53;;;;;;;30.98;20.52;;;;;;;-146.18;100.00;67994.34;10350639;27;20062;-71
2024/03/07 20:37:50;;;;;;;24.23;18.83;;;;;;;-146.18;100.00;67994.34;10357117;27;20054;-72
2024/03/07 20:42:47;;;;;;;28.35;19.10;;;;;;;-146.18;100.00;67994.34;10350130;27;20559;-72
2024/03/07 20:47:45;;;;;;;27.65;20.10;;;;;;;-146.18;100.00;67994.34;10354235;27;20105;-72
2024/03/07 20:52:46;;;;;;;25.75;18.77;;;;;;;-146.18;100.00;67994.34;10340347;27;20721;-71
2024/03/07 20:57:46;;;;;;;26.67;18.98;;;;;;;-146.18;100.00;67994.34;10346260;27;20106;-71
2024/03/07 21:02:44;;;;;;;24.60;18.20;;;;;;;-146.18;100.00;67994.34;10335276;27;20063;-72
2024/03/07 21:07:41;;;;;;;28.65;19.48;;;;;;;-146.18;100.00;67994.34;10346239;27;20071;-72
2024/03/07 21:12:39;;;;;;;27.83;19.23;;;;;;;-146.18;100.00;67994.34;10342156;27;20093;-71
2024/03/07 21:17:36;;;;;;;23.77;18.33;;;;;;;-146.18;100.00;67994.34;10351568;27;20047;-71
2024/03/07 21:22:33;;;;;;;28.48;19.98;;;;;;;-146.18;100.00;67994.34;10354024;27;20052;-71
2024/03/07 21:27:30;;;;;;;26.30;18.50;;;;;;;-146.18;100.00;67994.34;10356743;27;20032;-71
2024/03/07 21:32:26;;;;;;;24.95;18.38;;;;;;;-146.18;100.00;67994.34;10346523;27;20136;-72
2024/03/07 21:37:23;;;;;;;27.67;19.35;;;;;;;-146.18;100.00;67994.34;10367362;27;20229;-72
2024/03/07 21:42:19;;;;;;;24.27;18.95;;;;;;;-146.18;100.00;67994.34;10353212;28;20624;-71
2024/03/07 21:47:17;;;;;;;29.20;18.80;;;;;;;-146.18;100.00;67994.34;10344333;28;20064;-72
2024/03/07 21:52:16;;;;;;;27.90;19.75;;;;;;;-146.18;100.00;67994.34;10356553;27;20109;-72